Time;durP1;ratioP1;P1;durP2;ratioP2;P2;SDS_P1;SDS_P2;PMS_P1;PMS_P2;Temp;Humidity;BMP_temperature;BMP_pressure;BME280_temperature;BME280_humidity;BME280_pressure;Samples;Min_cycle;Max_cycle;Signal;HPM_P1;HPM_P2
2021/06/02 00:00:31;;;;;;;4.67;4.27;;;;;;;;;;4991916;28;20923;-70
2021/06/02 00:03:00;;;;;;;5.43;4.93;;;;;;;;;;4992116;28;20405;-70
2021/06/02 00:05:27;;;;;;;5.27;3.83;;;;;;;;;;4991961;28;20406;-67
2021/06/02 00:07:53;;;;;;;4.30;3.80;;;;;;;;;;4991800;28;20416;-71
2021/06/02 00:10:21;;;;;;;6.60;4.07;;;;;;;;;;4991686;28;20438;-72
2021/06/02 00:12:47;;;;;;;6.57;3.93;;;;;;;;;;4991841;28;20421;-68
2021/06/02 00:15:13;;;;;;;5.10;4.40;;;;;;;;;;4991545;28;20872;-68
2021/06/02 00:17:39;;;;;;;5.50;4.93;;;;;;;;;;4991967;28;20813;-69
2021/06/02 00:20:09;;;;;;;4.30;3.90;;;;;;;;;;4991780;28;20410;-69
2021/06/02 00:22:35;;;;;;;5.27;4.67;;;;;;;;;;4991500;28;20935;-69
2021/06/02 00:25:01;;;;;;;6.00;3.33;;;;;;;;;;4992021;28;20417;-71
2021/06/02 00:27:29;;;;;;;6.27;3.27;;;;;;;;;;4991816;28;20660;-69
2021/06/02 00:29:55;;;;;;;4.43;3.53;;;;;;;;;;4991493;28;20469;-67
2021/06/02 00:32:22;;;;;;;4.43;3.60;;;;;;;;;;4973869;28;20441;-72
2021/06/02 00:34:52;;;;;;;4.20;3.87;;;;;;;;;;4991315;28;20433;-70
2021/06/02 00:37:20;;;;;;;4.80;4.17;;;;;;;;;;4991476;28;20849;-71
2021/06/02 00:39:47;;;;;;;3.57;3.27;;;;;;;;;;4991222;28;20577;-69
2021/06/02 00:45:17;;;;;;;3.97;3.57;;;;;;;;;;4991249;28;20437;-70
2021/06/02 00:47:44;;;;;;;4.30;3.80;;;;;;;;;;4991143;28;20473;-71
2021/06/02 00:50:10;;;;;;;5.80;4.30;;;;;;;;;;4991259;28;20501;-70
2021/06/02 00:52:37;;;;;;;4.10;3.70;;;;;;;;;;4991445;28;20891;-70
2021/06/02 00:55:03;;;;;;;4.07;3.73;;;;;;;;;;4991233;28;20414;-70
2021/06/02 00:57:30;;;;;;;5.50;3.87;;;;;;;;;;4990865;28;20413;-70
2021/06/02 01:00:04;;;;;;;4.80;3.90;;;;;;;;;;4991109;28;20442;-68
2021/06/02 01:02:31;;;;;;;4.67;4.20;;;;;;;;;;4991072;28;20410;-69
2021/06/02 01:04:57;;;;;;;4.00;3.50;;;;;;;;;;4990973;28;20504;-69
2021/06/02 01:07:23;;;;;;;9.70;3.93;;;;;;;;;;4990967;28;20414;-69
2021/06/02 01:09:51;;;;;;;4.53;3.97;;;;;;;;;;4973188;28;20473;-69
2021/06/02 01:15:21;;;;;;;6.10;4.93;;;;;;;;;;4990534;28;20421;-72
2021/06/02 01:17:47;;;;;;;8.07;3.80;;;;;;;;;;4990728;28;20418;-69
2021/06/02 01:20:14;;;;;;;4.60;4.20;;;;;;;;;;4990579;28;20916;-68
2021/06/02 01:22:40;;;;;;;3.30;3.00;;;;;;;;;;4990803;28;20417;-69
2021/06/02 01:31:16;;;;;;;3.70;3.30;;;;;;;;;;4990589;28;20409;-69
2021/06/02 01:33:51;;;;;;;3.53;3.23;;;;;;;;;;4972961;28;20422;-71
2021/06/02 01:36:24;;;;;;;4.97;2.90;;;;;;;;;;4987192;28;20409;-68
2021/06/02 01:39:05;;;;;;;3.50;3.30;;;;;;;;;;4989846;28;20494;-68
2021/06/02 01:41:49;;;;;;;3.63;3.33;;;;;;;;;;4990191;28;20988;-72
2021/06/02 01:44:30;;;;;;;4.10;3.60;;;;;;;;;;4990336;28;20426;-69
2021/06/02 01:46:59;;;;;;;3.37;3.07;;;;;;;;;;4990111;28;20473;-69
2021/06/02 01:49:31;;;;;;;3.87;3.47;;;;;;;;;;4990104;28;20485;-71
2021/06/02 01:52:16;;;;;;;3.63;3.33;;;;;;;;;;4990105;28;20776;-69
2021/06/02 01:55:14;;;;;;;5.13;3.60;;;;;;;;;;4990603;28;20417;-69
2021/06/02 01:57:46;;;;;;;4.43;3.53;;;;;;;;;;4990448;28;20893;-69
2021/06/02 02:00:30;;;;;;;4.80;3.70;;;;;;;;;;4989931;28;20414;-69
2021/06/02 02:02:56;;;;;;;3.73;3.40;;;;;;;;;;4990571;28;20775;-69
2021/06/02 02:05:46;;;;;;;3.20;3.00;;;;;;;;;;4990464;28;20418;-67
2021/06/02 02:08:23;;;;;;;4.73;3.70;;;;;;;;;;4994437;28;20460;-69
2021/06/02 02:13:59;;;;;;;3.80;3.50;;;;;;;;;;4990276;28;20499;-68
2021/06/02 02:16:43;;;;;;;6.30;3.30;;;;;;;;;;4989957;28;20458;-69
2021/06/02 02:19:21;;;;;;;4.00;3.63;;;;;;;;;;4990506;28;20768;-69
2021/06/02 02:21:50;;;;;;;3.40;3.10;;;;;;;;;;4992403;28;20912;-68
2021/06/02 02:24:29;;;;;;;4.33;3.73;;;;;;;;;;4976440;28;20664;-69
2021/06/02 02:30:05;;;;;;;5.00;4.03;;;;;;;;;;4993566;28;20660;-70
2021/06/02 02:32:50;;;;;;;3.93;3.63;;;;;;;;;;4993582;28;20410;-70
2021/06/02 02:35:16;;;;;;;3.90;3.60;;;;;;;;;;4993631;28;20759;-71
2021/06/02 02:38:00;;;;;;;6.50;4.47;;;;;;;;;;4993336;28;20453;-68
2021/06/02 02:46:23;;;;;;;6.07;3.53;;;;;;;;;;4992884;28;20476;-70
2021/06/02 02:49:08;;;;;;;3.60;3.30;;;;;;;;;;4993358;28;20823;-70
2021/06/02 02:51:36;;;;;;;4.77;3.37;;;;;;;;;;4993317;28;20520;-69
2021/06/02 02:54:02;;;;;;;3.63;3.33;;;;;;;;;;4975614;28;20429;-69
2021/06/02 02:56:52;;;;;;;3.47;3.17;;;;;;;;;;4993045;28;20426;-67
2021/06/02 02:59:24;;;;;;;4.20;3.80;;;;;;;;;;4956402;28;20790;-70
2021/06/02 03:02:13;;;;;;;4.67;4.13;;;;;;;;;;4992840;28;20420;-70
2021/06/02 03:04:54;;;;;;;5.50;3.67;;;;;;;;;;4992748;28;20903;-72
2021/06/02 03:07:22;;;;;;;5.33;4.83;;;;;;;;;;4993091;28;20421;-69
2021/06/02 03:10:08;;;;;;;4.27;3.87;;;;;;;;;;4975534;28;20564;-70
2021/06/02 03:12:55;;;;;;;4.50;4.10;;;;;;;;;;4992699;28;20422;-69
2021/06/02 03:15:40;;;;;;;4.30;3.80;;;;;;;;;;4992933;28;20860;-68
2021/06/02 03:18:25;;;;;;;4.23;3.83;;;;;;;;;;4992787;28;20426;-69
2021/06/02 03:21:30;;;;;;;4.80;4.37;;;;;;;;;;4992490;28;20492;-69
2021/06/02 03:24:05;;;;;;;4.70;3.63;;;;;;;;;;4913740;29;20455;-70
2021/06/02 03:29:55;;;;;;;4.90;3.77;;;;;;;;;;4975631;28;20491;-69
2021/06/02 03:32:40;;;;;;;4.27;3.80;;;;;;;;;;4992480;28;20448;-69
2021/06/02 03:35:11;;;;;;;3.97;3.67;;;;;;;;;;4992382;28;20814;-68
2021/06/02 03:37:56;;;;;;;4.23;3.93;;;;;;;;;;4992304;28;20467;-67
2021/06/02 03:40:30;;;;;;;5.37;4.87;;;;;;;;;;4992180;28;20421;-68
2021/06/02 03:46:03;;;;;;;4.30;3.90;;;;;;;;;;4991751;28;20483;-68
2021/06/02 03:48:33;;;;;;;4.20;3.80;;;;;;;;;;4992180;28;20515;-68
2021/06/02 03:51:02;;;;;;;5.30;4.10;;;;;;;;;;4992435;28;20430;-68
2021/06/02 03:53:46;;;;;;;6.60;4.00;;;;;;;;;;4992351;28;20480;-68
2021/06/02 03:56:18;;;;;;;7.03;4.13;;;;;;;;;;4992084;28;20836;-68
2021/06/02 03:58:52;;;;;;;5.43;4.10;;;;;;;;;;4992227;28;20837;-69
2021/06/02 04:01:30;;;;;;;4.23;3.90;;;;;;;;;;4974276;28;20456;-67
2021/06/02 04:04:15;;;;;;;4.47;4.07;;;;;;;;;;4992068;28;20417;-70
2021/06/02 04:06:44;;;;;;;6.10;4.90;;;;;;;;;;4979162;28;20779;-69
2021/06/02 04:09:20;;;;;;;6.07;4.53;;;;;;;;;;4992515;28;20477;-68
2021/06/02 04:11:46;;;;;;;3.93;3.63;;;;;;;;;;4992116;28;20418;-69
2021/06/02 04:14:14;;;;;;;4.50;4.10;;;;;;;;;;4992051;28;20432;-70
2021/06/02 04:16:41;;;;;;;5.37;4.17;;;;;;;;;;4973529;28;21145;-67
2021/06/02 04:19:14;;;;;;;5.87;3.63;;;;;;;;;;4991642;28;20475;-70
2021/06/02 04:21:42;;;;;;;4.87;4.10;;;;;;;;;;4991597;28;20421;-69
2021/06/02 04:24:10;;;;;;;4.83;4.03;;;;;;;;;;4991841;28;20480;-68
2021/06/02 04:26:37;;;;;;;5.07;3.90;;;;;;;;;;4991707;28;20880;-68
2021/06/02 04:29:06;;;;;;;7.00;3.70;;;;;;;;;;4991953;28;20481;-70
2021/06/02 04:31:32;;;;;;;5.17;4.33;;;;;;;;;;4958037;28;20487;-69
2021/06/02 04:34:02;;;;;;;5.63;3.67;;;;;;;;;;4991579;28;20508;-69
2021/06/02 04:36:29;;;;;;;5.47;4.90;;;;;;;;;;4991302;28;20581;-70
2021/06/02 04:38:56;;;;;;;5.30;4.30;;;;;;;;;;4991621;28;20426;-68
2021/06/02 04:41:26;;;;;;;5.73;3.97;;;;;;;;;;4991398;28;20429;-68
2021/06/02 04:43:53;;;;;;;4.43;3.60;;;;;;;;;;4990558;28;20430;-70
2021/06/02 04:46:20;;;;;;;4.50;3.40;;;;;;;;;;4991268;28;20477;-69
2021/06/02 04:48:46;;;;;;;5.17;3.17;;;;;;;;;;4991646;28;20477;-69
2021/06/02 04:51:24;;;;;;;4.60;4.20;;;;;;;;;;4991490;28;20484;-69
2021/06/02 04:53:56;;;;;;;8.13;4.57;;;;;;;;;;4991348;28;20409;-69
2021/06/02 04:56:41;;;;;;;4.23;3.83;;;;;;;;;;4991158;28;20456;-70
2021/06/02 04:59:24;;;;;;;4.70;3.50;;;;;;;;;;4990754;28;20405;-70
2021/06/02 05:02:05;;;;;;;3.50;3.20;;;;;;;;;;4991012;28;20521;-68
2021/06/02 05:04:34;;;;;;;8.00;3.50;;;;;;;;;;4991018;28;20793;-70
2021/06/02 05:07:19;;;;;;;4.53;4.13;;;;;;;;;;4991071;28;20394;-68
2021/06/02 05:10:03;;;;;;;4.43;3.50;;;;;;;;;;4990815;28;20517;-69
2021/06/02 05:13:00;;;;;;;3.40;3.00;;;;;;;;;;4991286;28;20528;-68
2021/06/02 05:15:26;;;;;;;3.40;3.10;;;;;;;;;;4990532;28;20918;-69
2021/06/02 05:18:28;;;;;;;6.40;4.20;;;;;;;;;;4990500;28;20520;-69
2021/06/02 05:23:43;;;;;;;4.90;3.90;;;;;;;;;;4981082;28;20449;-70
2021/06/02 05:29:32;;;;;;;4.70;4.03;;;;;;;;;;4990363;28;20475;-69
2021/06/02 05:32:00;;;;;;;8.23;4.80;;;;;;;;;;4990577;28;20488;-66
2021/06/02 05:34:27;;;;;;;11.57;4.70;;;;;;;;;;4990506;28;20424;-67
2021/06/02 05:36:56;;;;;;;7.10;3.60;;;;;;;;;;4991061;28;20425;-68
2021/06/02 05:39:25;;;;;;;8.33;4.87;;;;;;;;;;4991144;28;20443;-68
2021/06/02 05:44:55;;;;;;;11.43;4.50;;;;;;;;;;4990280;28;20409;-69
2021/06/02 05:47:26;;;;;;;9.97;6.03;;;;;;;;;;4989625;28;20489;-69
2021/06/02 05:50:07;;;;;;;9.23;4.60;;;;;;;;;;4989662;28;20805;-69
2021/06/02 05:52:43;;;;;;;9.93;4.60;;;;;;;;;;4990243;28;20414;-69
2021/06/02 05:55:09;;;;;;;4.10;3.67;;;;;;;;;;4990251;28;20414;-67
2021/06/02 06:00:59;;;;;;;3.60;3.00;;;;;;;;;;4993662;28;20421;-68
2021/06/02 06:03:26;;;;;;;3.03;2.83;;;;;;;;;;4994630;28;20425;-69
2021/06/02 06:05:58;;;;;;;2.67;2.47;;;;;;;;;;4982190;28;20434;-68
2021/06/02 06:08:43;;;;;;;3.10;2.83;;;;;;;;;;4994347;28;20473;-68
2021/06/02 06:11:28;;;;;;;2.97;2.77;;;;;;;;;;4993851;28;20417;-69
2021/06/02 06:17:16;;;;;;;3.13;2.90;;;;;;;;;;4993741;28;20440;-69
2021/06/02 06:19:42;;;;;;;3.50;3.20;;;;;;;;;;4994108;28;20476;-71
2021/06/02 06:22:28;;;;;;;3.27;2.53;;;;;;;;;;4994165;28;20433;-70
2021/06/02 06:24:58;;;;;;;3.33;3.13;;;;;;;;;;4994100;28;20712;-69
2021/06/02 06:27:43;;;;;;;3.63;2.93;;;;;;;;;;4993537;28;20584;-70
2021/06/02 06:30:19;;;;;;;2.83;2.67;;;;;;;;;;4993252;28;20472;-69
2021/06/02 06:32:46;;;;;;;3.47;3.00;;;;;;;;;;4993780;28;20900;-71
2021/06/02 06:35:14;;;;;;;4.87;3.57;;;;;;;;;;4993882;28;20452;-71
2021/06/02 06:37:43;;;;;;;4.43;3.80;;;;;;;;;;4994267;28;20417;-69
2021/06/02 06:40:11;;;;;;;2.80;2.53;;;;;;;;;;4993944;28;20460;-69
2021/06/02 06:42:41;;;;;;;4.77;2.67;;;;;;;;;;4993487;28;20429;-71
2021/06/02 06:45:16;;;;;;;6.93;3.50;;;;;;;;;;4993442;28;20414;-69
2021/06/02 06:47:43;;;;;;;3.93;3.10;;;;;;;;;;4993369;28;20552;-70
2021/06/02 06:50:10;;;;;;;6.83;3.10;;;;;;;;;;4993401;28;20479;-70
2021/06/02 06:52:37;;;;;;;4.10;2.97;;;;;;;;;;4976134;28;20557;-70
2021/06/02 06:55:05;;;;;;;4.17;2.70;;;;;;;;;;4993305;28;20432;-70
2021/06/02 06:57:32;;;;;;;3.67;3.37;;;;;;;;;;4993439;28;20418;-71
2021/06/02 06:59:58;;;;;;;2.90;2.60;;;;;;;;;;4993852;28;20414;-69
2021/06/02 07:02:24;;;;;;;3.90;3.50;;;;;;;;;;4992918;28;20481;-67
2021/06/02 07:04:51;;;;;;;7.90;2.90;;;;;;;;;;4993340;28;20418;-67
2021/06/02 07:07:17;;;;;;;3.73;2.60;;;;;;;;;;4992947;28;20892;-68
2021/06/02 07:09:43;;;;;;;2.80;2.60;;;;;;;;;;4993015;28;20960;-67
2021/06/02 07:17:59;;;;;;;4.13;2.83;;;;;;;;;;4993069;28;20494;-67
2021/06/02 07:20:26;;;;;;;4.67;2.70;;;;;;;;;;4975562;28;20422;-68
2021/06/02 07:22:53;;;;;;;5.93;2.63;;;;;;;;;;4992925;28;20483;-69
2021/06/02 07:25:20;;;;;;;18.80;3.43;;;;;;;;;;4992812;28;20597;-71
2021/06/02 07:27:47;;;;;;;9.30;3.50;;;;;;;;;;4992522;28;20422;-68
2021/06/02 07:30:14;;;;;;;8.40;3.40;;;;;;;;;;4992602;28;20531;-67
2021/06/02 07:32:40;;;;;;;7.00;3.50;;;;;;;;;;4992498;28;20618;-67
2021/06/02 07:35:06;;;;;;;3.77;2.93;;;;;;;;;;4992394;28;20874;-67
2021/06/02 07:37:33;;;;;;;5.87;3.33;;;;;;;;;;4992593;28;20410;-66
2021/06/02 07:39:59;;;;;;;7.07;3.10;;;;;;;;;;4992631;28;20517;-67
2021/06/02 07:42:25;;;;;;;5.10;2.70;;;;;;;;;;4992426;28;20449;-69
2021/06/02 07:47:55;;;;;;;7.80;3.40;;;;;;;;;;4991917;28;20475;-68
2021/06/02 07:50:21;;;;;;;5.87;2.50;;;;;;;;;;4974430;28;20546;-67
2021/06/02 07:52:47;;;;;;;3.00;2.50;;;;;;;;;;4992383;28;20414;-71
2021/06/02 07:55:13;;;;;;;3.00;2.60;;;;;;;;;;4992085;28;20556;-68
2021/06/02 07:57:39;;;;;;;3.57;2.67;;;;;;;;;;4992108;28;20426;-67
2021/06/02 08:00:05;;;;;;;3.00;2.50;;;;;;;;;;4991866;28;20422;-67
2021/06/02 08:02:31;;;;;;;3.00;2.47;;;;;;;;;;4992184;28;20445;-69
2021/06/02 08:04:57;;;;;;;3.67;2.37;;;;;;;;;;4991914;28;20422;-69
2021/06/02 08:07:23;;;;;;;2.60;2.40;;;;;;;;;;4991854;28;20414;-68
2021/06/02 08:09:50;;;;;;;3.70;2.17;;;;;;;;;;4992436;28;20469;-69
2021/06/02 08:12:17;;;;;;;7.33;2.53;;;;;;;;;;4995134;28;20414;-68
2021/06/02 08:17:46;;;;;;;6.30;2.70;;;;;;;;;;4992135;28;20417;-72
2021/06/02 08:20:13;;;;;;;2.43;2.23;;;;;;;;;;4991004;28;20460;-73
2021/06/02 08:22:39;;;;;;;2.20;2.00;;;;;;;;;;4991143;28;20421;-73
2021/06/02 08:25:07;;;;;;;5.70;2.73;;;;;;;;;;4991126;28;20716;-74
2021/06/02 08:27:33;;;;;;;3.83;2.80;;;;;;;;;;4990607;28;20446;-74
2021/06/02 08:33:03;;;;;;;3.67;2.60;;;;;;;;;;4990692;28;20464;-74
2021/06/02 08:35:29;;;;;;;7.53;2.57;;;;;;;;;;4989851;28;20406;-72
2021/06/02 08:37:56;;;;;;;4.53;2.43;;;;;;;;;;4972926;28;20951;-73
2021/06/02 08:40:22;;;;;;;3.17;2.20;;;;;;;;;;4990674;28;20429;-72
2021/06/02 08:42:48;;;;;;;7.33;2.10;;;;;;;;;;4990738;28;20483;-75
2021/06/02 08:48:17;;;;;;;3.33;2.50;;;;;;;;;;4990626;28;20457;-74
2021/06/02 08:50:43;;;;;;;4.03;2.60;;;;;;;;;;4990537;28;20438;-77
2021/06/02 08:53:14;;;;;;;3.43;2.30;;;;;;;;;;4990522;28;20410;-75
2021/06/02 08:55:44;;;;;;;2.20;2.00;;;;;;;;;;4990378;28;21078;-76
2021/06/02 08:58:10;;;;;;;3.30;2.77;;;;;;;;;;4990548;28;20471;-76
2021/06/02 09:00:36;;;;;;;2.80;1.87;;;;;;;;;;4990235;28;20476;-76
2021/06/02 09:03:03;;;;;;;7.10;2.60;;;;;;;;;;4989609;28;20512;-76
2021/06/02 09:05:30;;;;;;;3.77;2.40;;;;;;;;;;4989208;28;20476;-76
2021/06/02 09:07:57;;;;;;;2.73;2.50;;;;;;;;;;4989776;28;20869;-76
2021/06/02 09:10:25;;;;;;;3.53;2.13;;;;;;;;;;4989324;28;20552;-76
2021/06/02 09:13:02;;;;;;;6.80;2.73;;;;;;;;;;4989838;28;20946;-76
2021/06/02 09:18:31;;;;;;;11.23;2.90;;;;;;;;;;4989760;28;20405;-75
2021/06/02 09:20:57;;;;;;;2.70;2.50;;;;;;;;;;4989600;28;20421;-76
2021/06/02 09:23:43;;;;;;;1.87;1.77;;;;;;;;;;4989710;28;20414;-75
2021/06/02 09:26:09;;;;;;;3.47;2.50;;;;;;;;;;4989514;28;20421;-75
2021/06/02 09:28:48;;;;;;;3.20;2.90;;;;;;;;;;4989062;28;20548;-76
2021/06/02 09:31:26;;;;;;;2.90;2.23;;;;;;;;;;4988867;28;20414;-76
2021/06/02 09:33:54;;;;;;;3.33;2.70;;;;;;;;;;4989511;28;20422;-75
2021/06/02 09:36:25;;;;;;;2.70;2.50;;;;;;;;;;4971358;28;20498;-76
2021/06/02 09:38:52;;;;;;;2.30;2.10;;;;;;;;;;4989496;28;20420;-78
2021/06/02 09:41:18;;;;;;;3.67;2.30;;;;;;;;;;4971612;28;20524;-78
2021/06/02 09:43:44;;;;;;;3.00;2.70;;;;;;;;;;4989186;28;20526;-76
2021/06/02 09:46:14;;;;;;;2.23;2.13;;;;;;;;;;4989011;28;20469;-77
2021/06/02 09:48:41;;;;;;;2.57;2.27;;;;;;;;;;4989357;28;20524;-76
2021/06/02 09:51:27;;;;;;;2.63;2.40;;;;;;;;;;4989714;28;20772;-76
2021/06/02 09:53:55;;;;;;;3.10;2.90;;;;;;;;;;4989951;28;20414;-76
2021/06/02 09:56:33;;;;;;;3.53;1.93;;;;;;;;;;4989857;28;20468;-76
2021/06/02 09:58:59;;;;;;;2.00;1.90;;;;;;;;;;4989128;28;20492;-76
2021/06/02 10:01:25;;;;;;;2.90;2.20;;;;;;;;;;4971176;28;20477;-77
2021/06/02 10:03:52;;;;;;;2.13;1.93;;;;;;;;;;4989037;28;20412;-76
2021/06/02 10:06:18;;;;;;;2.87;2.50;;;;;;;;;;4988989;28;20414;-75
2021/06/02 10:08:56;;;;;;;3.40;2.33;;;;;;;;;;4989137;28;20812;-75
2021/06/02 10:11:27;;;;;;;2.60;2.40;;;;;;;;;;4988990;28;20777;-77
2021/06/02 10:13:54;;;;;;;4.00;2.60;;;;;;;;;;4988625;28;20417;-77
2021/06/02 10:16:45;;;;;;;4.17;3.63;;;;;;;;;;4990200;28;20493;-78
2021/06/02 10:19:11;;;;;;;4.90;2.50;;;;;;;;;;4990295;28;20442;-77
2021/06/02 10:21:47;;;;;;;7.93;3.50;;;;;;;;;;4989904;28;20422;-76
2021/06/02 10:24:13;;;;;;;3.43;2.40;;;;;;;;;;4989382;28;20429;-75
2021/06/02 10:26:39;;;;;;;3.70;2.10;;;;;;;;;;4972042;28;20549;-74
2021/06/02 10:29:06;;;;;;;3.67;2.43;;;;;;;;;;4989403;28;20488;-75
2021/06/02 10:31:32;;;;;;;7.07;2.13;;;;;;;;;;4989702;28;20560;-75
2021/06/02 10:33:58;;;;;;;2.97;2.40;;;;;;;;;;4994375;28;20418;-75
2021/06/02 10:36:25;;;;;;;2.47;2.27;;;;;;;;;;4991933;28;20531;-77
2021/06/02 10:38:52;;;;;;;2.40;2.20;;;;;;;;;;4990474;28;20422;-76
2021/06/02 10:41:29;;;;;;;2.67;2.20;;;;;;;;;;4989715;28;20453;-76
2021/06/02 10:50:03;;;;;;;2.20;2.10;;;;;;;;;;4993484;28;21015;-78
2021/06/02 10:52:39;;;;;;;9.00;2.80;;;;;;;;;;4994077;28;20406;-77
2021/06/02 10:55:24;;;;;;;3.23;2.10;;;;;;;;;;4994537;28;20475;-76
2021/06/02 10:58:22;;;;;;;3.40;2.60;;;;;;;;;;4994479;28;20497;-77
2021/06/02 11:00:50;;;;;;;2.77;2.57;;;;;;;;;;4950107;28;20524;-77
2021/06/02 11:03:17;;;;;;;2.83;2.10;;;;;;;;;;4991393;28;20464;-78
2021/06/02 11:05:46;;;;;;;2.50;2.40;;;;;;;;;;4992346;28;20436;-79
2021/06/02 11:08:12;;;;;;;2.23;2.03;;;;;;;;;;4992345;28;20432;-76
2021/06/02 11:10:38;;;;;;;2.47;2.27;;;;;;;;;;4992816;28;20649;-79
2021/06/02 11:13:06;;;;;;;2.10;2.00;;;;;;;;;;4993014;28;20857;-79
2021/06/02 11:15:35;;;;;;;2.37;2.17;;;;;;;;;;4992574;28;20846;-76
2021/06/02 11:18:11;;;;;;;3.70;2.30;;;;;;;;;;4992113;28;20761;-77
2021/06/02 11:20:39;;;;;;;4.60;2.33;;;;;;;;;;4992013;28;20915;-78
2021/06/02 11:23:06;;;;;;;2.77;2.57;;;;;;;;;;4992323;28;20932;-74
2021/06/02 11:25:32;;;;;;;2.70;2.50;;;;;;;;;;4974945;28;20529;-75
2021/06/02 11:27:58;;;;;;;2.30;2.20;;;;;;;;;;4991888;28;20429;-78
2021/06/02 11:30:25;;;;;;;4.97;2.70;;;;;;;;;;4992047;28;21112;-74
2021/06/02 11:32:56;;;;;;;3.00;2.20;;;;;;;;;;4974862;28;20492;-75
2021/06/02 11:35:42;;;;;;;2.60;2.40;;;;;;;;;;4992154;28;20418;-77
2021/06/02 11:38:08;;;;;;;4.17;2.90;;;;;;;;;;4992428;28;20439;-76
2021/06/02 11:40:34;;;;;;;3.80;2.67;;;;;;;;;;4992244;28;20422;-73
2021/06/02 11:43:00;;;;;;;3.63;2.70;;;;;;;;;;4992378;28;20424;-74
2021/06/02 11:45:28;;;;;;;2.60;2.33;;;;;;;;;;4992269;28;20525;-76
2021/06/02 11:48:01;;;;;;;5.60;3.50;;;;;;;;;;4992162;28;21027;-74
2021/06/02 11:50:27;;;;;;;4.10;2.83;;;;;;;;;;4974965;28;20532;-75
2021/06/02 11:52:57;;;;;;;2.37;2.27;;;;;;;;;;4991122;28;20414;-74
2021/06/02 11:55:24;;;;;;;5.17;2.43;;;;;;;;;;4991368;28;20414;-76
2021/06/02 11:57:51;;;;;;;3.83;2.20;;;;;;;;;;4992260;28;20714;-76
2021/06/02 12:00:20;;;;;;;3.07;2.50;;;;;;;;;;4974413;28;20430;-76
2021/06/02 12:02:47;;;;;;;3.93;2.57;;;;;;;;;;4991362;28;20424;-75
2021/06/02 12:05:19;;;;;;;3.03;2.03;;;;;;;;;;4991656;28;20438;-75
2021/06/02 12:07:46;;;;;;;3.17;2.90;;;;;;;;;;4991844;28;20425;-76
2021/06/02 12:10:12;;;;;;;3.30;2.70;;;;;;;;;;4991986;28;21061;-76
2021/06/02 12:12:43;;;;;;;3.40;2.70;;;;;;;;;;4991486;28;20418;-75
2021/06/02 12:15:09;;;;;;;5.40;3.00;;;;;;;;;;4973863;28;20422;-75
2021/06/02 12:17:35;;;;;;;2.40;2.20;;;;;;;;;;4991438;28;20414;-74
2021/06/02 12:20:03;;;;;;;4.30;2.27;;;;;;;;;;4991468;28;20425;-74
2021/06/02 12:22:29;;;;;;;2.40;2.20;;;;;;;;;;4991171;28;20599;-74
2021/06/02 12:25:09;;;;;;;2.67;2.47;;;;;;;;;;4991551;28;20780;-75
2021/06/02 12:27:40;;;;;;;3.03;2.70;;;;;;;;;;4991512;28;20505;-74
2021/06/02 12:30:09;;;;;;;7.50;2.93;;;;;;;;;;4991313;28;20815;-75
2021/06/02 12:32:54;;;;;;;4.67;2.27;;;;;;;;;;4991225;28;20406;-74
2021/06/02 12:35:24;;;;;;;2.70;2.50;;;;;;;;;;4973439;28;21030;-74
2021/06/02 12:38:07;;;;;;;5.23;3.03;;;;;;;;;;4990951;28;20429;-75
2021/06/02 12:40:34;;;;;;;3.10;2.33;;;;;;;;;;4991043;28;20425;-73
2021/06/02 12:43:00;;;;;;;3.83;2.40;;;;;;;;;;4990725;28;20421;-74
2021/06/02 12:45:31;;;;;;;3.03;2.70;;;;;;;;;;4990452;28;20517;-74
2021/06/02 12:47:57;;;;;;;2.63;2.43;;;;;;;;;;4990964;28;20543;-75
2021/06/02 12:50:41;;;;;;;3.00;2.47;;;;;;;;;;4990883;28;20959;-75
2021/06/02 12:53:08;;;;;;;3.60;2.47;;;;;;;;;;4991338;28;20798;-75
2021/06/02 12:55:44;;;;;;;5.03;3.00;;;;;;;;;;4990773;28;20449;-75
2021/06/02 12:58:15;;;;;;;7.07;2.90;;;;;;;;;;4991214;28;20709;-74
2021/06/02 13:00:42;;;;;;;3.53;2.43;;;;;;;;;;4993468;28;20407;-74
2021/06/02 13:03:09;;;;;;;3.93;2.37;;;;;;;;;;4996198;28;20409;-75
2021/06/02 13:05:36;;;;;;;3.57;2.87;;;;;;;;;;4991001;28;20452;-75
2021/06/02 13:08:06;;;;;;;4.23;2.40;;;;;;;;;;4991600;28;20496;-74
2021/06/02 13:10:32;;;;;;;5.57;2.30;;;;;;;;;;4990923;28;20480;-74
2021/06/02 13:13:00;;;;;;;2.47;2.27;;;;;;;;;;4990619;28;20422;-75
2021/06/02 13:15:31;;;;;;;4.90;2.43;;;;;;;;;;4990995;28;20428;-75
2021/06/02 13:17:57;;;;;;;4.93;2.83;;;;;;;;;;4991266;28;20425;-74
2021/06/02 13:20:32;;;;;;;2.67;2.47;;;;;;;;;;4990722;28;20410;-74
2021/06/02 13:23:07;;;;;;;7.17;2.60;;;;;;;;;;4991013;28;20425;-74
2021/06/02 13:25:33;;;;;;;2.77;2.57;;;;;;;;;;4990686;28;20436;-74
2021/06/02 13:28:00;;;;;;;3.47;2.00;;;;;;;;;;4973076;28;20881;-75
2021/06/02 13:30:36;;;;;;;4.43;2.77;;;;;;;;;;4990334;28;20469;-75
2021/06/02 13:33:02;;;;;;;2.87;2.53;;;;;;;;;;4990699;28;20928;-75
2021/06/02 13:35:28;;;;;;;4.93;2.37;;;;;;;;;;4990043;28;20901;-74
2021/06/02 13:37:54;;;;;;;2.63;2.40;;;;;;;;;;4990481;28;20414;-73
2021/06/02 13:40:23;;;;;;;2.90;2.33;;;;;;;;;;4990458;28;20402;-75
2021/06/02 13:43:04;;;;;;;3.23;2.70;;;;;;;;;;4990783;28;20425;-76
2021/06/02 13:45:40;;;;;;;16.93;2.80;;;;;;;;;;4990329;28;20472;-76
2021/06/02 13:48:26;;;;;;;2.83;2.20;;;;;;;;;;4989821;28;20445;-74
2021/06/02 13:51:08;;;;;;;4.80;2.03;;;;;;;;;;4989218;28;20765;-74
2021/06/02 13:53:34;;;;;;;5.17;2.20;;;;;;;;;;4989269;28;20721;-75
2021/06/02 13:56:00;;;;;;;3.63;2.03;;;;;;;;;;4989019;28;20425;-77
2021/06/02 13:58:26;;;;;;;2.77;2.20;;;;;;;;;;4989086;28;20420;-76
2021/06/02 14:00:52;;;;;;;3.20;2.30;;;;;;;;;;4989384;28;20418;-75
2021/06/02 14:03:19;;;;;;;4.27;2.33;;;;;;;;;;4989337;28;20410;-74
2021/06/02 14:05:45;;;;;;;2.53;1.90;;;;;;;;;;4989705;28;20533;-75
2021/06/02 14:08:11;;;;;;;2.60;1.97;;;;;;;;;;4989655;28;20449;-75
2021/06/02 14:10:37;;;;;;;2.67;2.03;;;;;;;;;;4989537;28;20524;-74
2021/06/02 14:13:04;;;;;;;2.70;1.70;;;;;;;;;;4989485;28;20799;-74
2021/06/02 14:15:30;;;;;;;4.40;2.50;;;;;;;;;;4988971;28;20607;-77
2021/06/02 14:20:59;;;;;;;2.40;2.20;;;;;;;;;;4992860;28;20452;-75
2021/06/02 14:23:25;;;;;;;3.80;2.50;;;;;;;;;;4992990;28;20468;-75
2021/06/02 14:25:51;;;;;;;3.33;2.00;;;;;;;;;;4993800;28;20441;-75
2021/06/02 14:28:17;;;;;;;2.60;2.10;;;;;;;;;;4993845;28;20472;-74
2021/06/02 14:30:46;;;;;;;2.57;2.30;;;;;;;;;;4975056;28;20968;-75
2021/06/02 14:33:12;;;;;;;2.90;2.00;;;;;;;;;;4975082;28;20601;-74
2021/06/02 14:35:37;;;;;;;7.40;2.23;;;;;;;;;;4992073;28;20526;-74
2021/06/02 14:38:04;;;;;;;2.83;1.77;;;;;;;;;;4975048;28;20432;-73
2021/06/02 14:40:30;;;;;;;4.37;2.27;;;;;;;;;;4992518;28;20516;-74
2021/06/02 14:42:56;;;;;;;2.07;1.90;;;;;;;;;;4992480;28;20433;-74
2021/06/02 14:45:22;;;;;;;4.07;1.90;;;;;;;;;;4992143;28;20514;-75
2021/06/02 14:50:52;;;;;;;2.53;2.30;;;;;;;;;;4992867;28;20437;-77
2021/06/02 14:53:18;;;;;;;2.40;2.20;;;;;;;;;;4992729;28;20418;-75
2021/06/02 14:55:44;;;;;;;2.27;2.07;;;;;;;;;;4993676;28;20509;-75
2021/06/02 14:58:10;;;;;;;2.13;1.93;;;;;;;;;;4976235;28;20437;-75
2021/06/02 15:00:36;;;;;;;1.77;1.50;;;;;;;;;;4993867;28;20529;-75
2021/06/02 15:06:06;;;;;;;2.07;1.97;;;;;;;;;;4993775;28;20892;-75
2021/06/02 15:08:33;;;;;;;3.80;2.50;;;;;;;;;;4990560;28;20428;-74
2021/06/02 15:10:59;;;;;;;2.60;2.40;;;;;;;;;;4992379;28;20438;-74
2021/06/02 15:13:25;;;;;;;2.13;1.93;;;;;;;;;;4991840;28;20432;-74
2021/06/02 15:15:53;;;;;;;2.80;2.60;;;;;;;;;;4991482;28;20425;-74
2021/06/02 15:21:22;;;;;;;3.30;2.00;;;;;;;;;;4992376;28;20552;-75
2021/06/02 15:23:48;;;;;;;3.70;2.10;;;;;;;;;;4992309;28;20469;-74
2021/06/02 15:26:14;;;;;;;3.10;2.37;;;;;;;;;;4992235;28;20429;-75
2021/06/02 15:28:41;;;;;;;2.13;2.03;;;;;;;;;;4994411;28;20421;-73
2021/06/02 15:31:08;;;;;;;2.10;1.90;;;;;;;;;;4983346;28;20477;-75
2021/06/02 15:36:39;;;;;;;3.27;1.90;;;;;;;;;;4991096;28;20467;-77
2021/06/02 15:39:05;;;;;;;2.40;1.90;;;;;;;;;;4991138;28;20583;-76
2021/06/02 15:41:31;;;;;;;5.80;2.10;;;;;;;;;;4991282;28;20441;-75
2021/06/02 15:43:58;;;;;;;3.00;2.07;;;;;;;;;;4990823;28;20848;-75
2021/06/02 15:46:24;;;;;;;2.40;2.10;;;;;;;;;;4990252;28;20858;-74
2021/06/02 15:51:56;;;;;;;4.80;2.17;;;;;;;;;;4990461;28;20469;-75
2021/06/02 15:54:25;;;;;;;3.07;2.70;;;;;;;;;;4990826;28;20951;-74
2021/06/02 15:56:51;;;;;;;2.40;2.00;;;;;;;;;;4990183;28;20497;-75
2021/06/02 15:59:19;;;;;;;2.20;2.10;;;;;;;;;;4990042;28;20552;-77
2021/06/02 16:01:48;;;;;;;1.90;1.70;;;;;;;;;;4972563;28;20429;-76
2021/06/02 16:04:14;;;;;;;3.50;1.47;;;;;;;;;;4989647;28;20432;-77
2021/06/02 16:06:40;;;;;;;2.20;2.10;;;;;;;;;;4989713;28;20417;-76
2021/06/02 16:09:06;;;;;;;2.07;1.87;;;;;;;;;;4990276;28;20791;-74
2021/06/02 16:11:35;;;;;;;1.87;1.73;;;;;;;;;;4990437;28;20426;-75
2021/06/02 16:14:01;;;;;;;4.90;2.07;;;;;;;;;;4955596;28;20513;-73
2021/06/02 16:16:27;;;;;;;2.53;2.33;;;;;;;;;;4989967;28;20414;-73
2021/06/02 16:21:57;;;;;;;2.00;1.90;;;;;;;;;;4989959;28;20423;-74
2021/06/02 16:24:23;;;;;;;3.80;2.10;;;;;;;;;;4989804;28;20504;-72
2021/06/02 16:26:50;;;;;;;4.17;2.73;;;;;;;;;;4989748;28;20525;-73
2021/06/02 16:29:16;;;;;;;2.47;2.27;;;;;;;;;;4990111;28;20863;-73
2021/06/02 16:37:31;;;;;;;2.90;1.90;;;;;;;;;;4991343;28;20981;-74
2021/06/02 16:39:59;;;;;;;3.03;1.83;;;;;;;;;;4990608;28;20782;-74
2021/06/02 16:42:26;;;;;;;2.50;2.00;;;;;;;;;;4991827;28;20409;-73